sensor_id;sensor_type;location;lat;lon;timestamp;P1;durP1;ratioP1;P2;durP2;ratioP2
4385;SDS011;2207;53.540;10.042;2023-06-10T00:00:03;6.70;;;3.13;;
4385;SDS011;2207;53.540;10.042;2023-06-10T00:02:32;5.90;;;3.47;;
4385;SDS011;2207;53.540;10.042;2023-06-10T00:04:58;13.43;;;4.07;;
4385;SDS011;2207;53.540;10.042;2023-06-10T00:07:25;9.60;;;4.13;;
4385;SDS011;2207;53.540;10.042;2023-06-10T00:09:52;5.40;;;3.70;;
4385;SDS011;2207;53.540;10.042;2023-06-10T00:12:20;3.40;;;3.07;;
4385;SDS011;2207;53.540;10.042;2023-06-10T00:14:47;4.87;;;3.37;;
4385;SDS011;2207;53.540;10.042;2023-06-10T00:17:16;7.70;;;4.70;;
4385;SDS011;2207;53.540;10.042;2023-06-10T00:19:43;3.27;;;2.90;;
4385;SDS011;2207;53.540;10.042;2023-06-10T00:22:11;4.93;;;3.80;;
4385;SDS011;2207;53.540;10.042;2023-06-10T00:24:39;5.07;;;3.53;;
4385;SDS011;2207;53.540;10.042;2023-06-10T00:27:06;3.00;;;2.80;;
4385;SDS011;2207;53.540;10.042;2023-06-10T00:29:33;3.13;;;2.83;;
4385;SDS011;2207;53.540;10.042;2023-06-10T00:32:00;5.10;;;3.20;;
4385;SDS011;2207;53.540;10.042;2023-06-10T00:34:28;7.30;;;3.43;;
4385;SDS011;2207;53.540;10.042;2023-06-10T00:36:55;9.93;;;3.73;;
4385;SDS011;2207;53.540;10.042;2023-06-10T00:39:21;5.30;;;3.47;;
4385;SDS011;2207;53.540;10.042;2023-06-10T00:41:48;3.87;;;2.80;;
4385;SDS011;2207;53.540;10.042;2023-06-10T00:44:15;8.43;;;2.93;;
4385;SDS011;2207;53.540;10.042;2023-06-10T00:46:42;5.97;;;3.00;;
4385;SDS011;2207;53.540;10.042;2023-06-10T00:49:10;7.40;;;3.57;;
4385;SDS011;2207;53.540;10.042;2023-06-10T00:51:38;3.07;;;2.40;;
4385;SDS011;2207;53.540;10.042;2023-06-10T00:54:05;6.90;;;3.90;;
4385;SDS011;2207;53.540;10.042;2023-06-10T00:56:33;7.00;;;2.87;;
4385;SDS011;2207;53.540;10.042;2023-06-10T00:59:00;7.03;;;3.17;;
4385;SDS011;2207;53.540;10.042;2023-06-10T01:01:28;4.57;;;2.40;;
4385;SDS011;2207;53.540;10.042;2023-06-10T01:03:55;4.63;;;2.33;;
4385;SDS011;2207;53.540;10.042;2023-06-10T01:06:24;5.03;;;2.73;;
4385;SDS011;2207;53.540;10.042;2023-06-10T01:09:02;3.60;;;2.10;;
4385;SDS011;2207;53.540;10.042;2023-06-10T01:11:40;5.60;;;2.53;;
4385;SDS011;2207;53.540;10.042;2023-06-10T01:14:13;3.40;;;2.50;;
4385;SDS011;2207;53.540;10.042;2023-06-10T01:16:40;4.70;;;2.87;;
4385;SDS011;2207;53.540;10.042;2023-06-10T01:19:07;3.40;;;2.00;;
4385;SDS011;2207;53.540;10.042;2023-06-10T01:21:36;7.03;;;3.30;;
4385;SDS011;2207;53.540;10.042;2023-06-10T01:24:05;7.90;;;3.13;;
4385;SDS011;2207;53.540;10.042;2023-06-10T01:26:33;5.80;;;2.70;;
4385;SDS011;2207;53.540;10.042;2023-06-10T01:29:03;8.87;;;3.43;;
4385;SDS011;2207;53.540;10.042;2023-06-10T01:31:38;3.40;;;3.10;;
4385;SDS011;2207;53.540;10.042;2023-06-10T01:34:11;9.00;;;3.30;;
4385;SDS011;2207;53.540;10.042;2023-06-10T01:36:41;7.00;;;2.73;;
4385;SDS011;2207;53.540;10.042;2023-06-10T01:39:12;3.93;;;2.27;;
4385;SDS011;2207;53.540;10.042;2023-06-10T01:41:42;4.37;;;2.87;;
4385;SDS011;2207;53.540;10.042;2023-06-10T01:44:09;7.50;;;2.70;;
4385;SDS011;2207;53.540;10.042;2023-06-10T01:46:36;8.47;;;2.73;;
4385;SDS011;2207;53.540;10.042;2023-06-10T01:49:03;7.83;;;3.30;;
4385;SDS011;2207;53.540;10.042;2023-06-10T01:51:30;3.87;;;2.73;;
4385;SDS011;2207;53.540;10.042;2023-06-10T01:53:58;5.27;;;2.90;;
4385;SDS011;2207;53.540;10.042;2023-06-10T01:56:25;11.70;;;2.97;;
4385;SDS011;2207;53.540;10.042;2023-06-10T01:58:52;5.00;;;2.90;;
4385;SDS011;2207;53.540;10.042;2023-06-10T02:01:20;3.27;;;2.50;;
4385;SDS011;2207;53.540;10.042;2023-06-10T02:03:47;9.00;;;2.90;;
4385;SDS011;2207;53.540;10.042;2023-06-10T02:06:14;4.97;;;2.63;;
4385;SDS011;2207;53.540;10.042;2023-06-10T02:08:40;5.07;;;2.57;;
4385;SDS011;2207;53.540;10.042;2023-06-10T02:11:08;4.17;;;2.70;;
4385;SDS011;2207;53.540;10.042;2023-06-10T02:13:35;4.00;;;2.40;;
4385;SDS011;2207;53.540;10.042;2023-06-10T02:16:02;3.80;;;2.50;;
4385;SDS011;2207;53.540;10.042;2023-06-10T02:18:29;13.73;;;2.97;;
4385;SDS011;2207;53.540;10.042;2023-06-10T02:20:55;4.60;;;2.80;;
4385;SDS011;2207;53.540;10.042;2023-06-10T02:23:22;7.00;;;1.90;;
4385;SDS011;2207;53.540;10.042;2023-06-10T02:25:49;5.70;;;1.67;;
4385;SDS011;2207;53.540;10.042;2023-06-10T02:28:17;3.63;;;2.20;;
4385;SDS011;2207;53.540;10.042;2023-06-10T02:30:44;5.00;;;2.60;;
4385;SDS011;2207;53.540;10.042;2023-06-10T02:33:11;5.27;;;2.20;;
4385;SDS011;2207;53.540;10.042;2023-06-10T02:35:39;7.67;;;1.93;;
4385;SDS011;2207;53.540;10.042;2023-06-10T02:38:06;6.80;;;2.17;;
4385;SDS011;2207;53.540;10.042;2023-06-10T02:40:33;3.83;;;1.73;;
4385;SDS011;2207;53.540;10.042;2023-06-10T02:42:59;3.90;;;1.60;;
4385;SDS011;2207;53.540;10.042;2023-06-10T02:45:27;5.93;;;2.20;;
4385;SDS011;2207;53.540;10.042;2023-06-10T02:47:54;4.93;;;2.77;;
4385;SDS011;2207;53.540;10.042;2023-06-10T02:50:21;4.43;;;2.20;;
4385;SDS011;2207;53.540;10.042;2023-06-10T02:52:48;2.80;;;2.30;;
4385;SDS011;2207;53.540;10.042;2023-06-10T02:55:15;5.10;;;1.80;;
4385;SDS011;2207;53.540;10.042;2023-06-10T02:57:41;10.43;;;2.30;;
4385;SDS011;2207;53.540;10.042;2023-06-10T03:00:09;4.37;;;1.73;;
4385;SDS011;2207;53.540;10.042;2023-06-10T03:02:38;2.87;;;1.87;;
4385;SDS011;2207;53.540;10.042;2023-06-10T03:05:05;9.30;;;2.40;;
4385;SDS011;2207;53.540;10.042;2023-06-10T03:07:35;2.43;;;1.60;;
4385;SDS011;2207;53.540;10.042;2023-06-10T03:10:03;2.97;;;1.43;;
4385;SDS011;2207;53.540;10.042;2023-06-10T03:12:30;3.07;;;1.70;;
4385;SDS011;2207;53.540;10.042;2023-06-10T03:14:57;7.07;;;2.57;;
4385;SDS011;2207;53.540;10.042;2023-06-10T03:17:24;7.57;;;4.07;;
4385;SDS011;2207;53.540;10.042;2023-06-10T03:19:52;6.93;;;1.90;;
4385;SDS011;2207;53.540;10.042;2023-06-10T03:22:18;6.23;;;2.17;;
4385;SDS011;2207;53.540;10.042;2023-06-10T03:24:45;5.17;;;1.97;;
4385;SDS011;2207;53.540;10.042;2023-06-10T03:27:15;2.50;;;1.77;;
4385;SDS011;2207;53.540;10.042;2023-06-10T03:29:42;2.60;;;1.40;;
4385;SDS011;2207;53.540;10.042;2023-06-10T03:32:09;3.07;;;1.40;;
4385;SDS011;2207;53.540;10.042;2023-06-10T03:34:36;8.47;;;2.17;;
4385;SDS011;2207;53.540;10.042;2023-06-10T03:37:05;5.63;;;2.40;;
4385;SDS011;2207;53.540;10.042;2023-06-10T03:39:32;5.90;;;2.17;;
4385;SDS011;2207;53.540;10.042;2023-06-10T03:41:59;2.10;;;1.90;;
4385;SDS011;2207;53.540;10.042;2023-06-10T03:44:25;3.43;;;1.63;;
4385;SDS011;2207;53.540;10.042;2023-06-10T03:46:52;10.80;;;1.60;;
4385;SDS011;2207;53.540;10.042;2023-06-10T03:49:19;4.80;;;1.80;;
4385;SDS011;2207;53.540;10.042;2023-06-10T03:51:46;5.43;;;1.87;;
4385;SDS011;2207;53.540;10.042;2023-06-10T03:54:14;4.17;;;1.47;;
4385;SDS011;2207;53.540;10.042;2023-06-10T03:56:40;2.20;;;1.90;;
4385;SDS011;2207;53.540;10.042;2023-06-10T03:59:07;2.80;;;1.77;;
4385;SDS011;2207;53.540;10.042;2023-06-10T04:01:34;4.23;;;1.73;;
4385;SDS011;2207;53.540;10.042;2023-06-10T04:04:02;4.50;;;1.30;;
4385;SDS011;2207;53.540;10.042;2023-06-10T04:06:29;4.17;;;2.10;;
4385;SDS011;2207;53.540;10.042;2023-06-10T04:08:56;5.23;;;2.50;;
4385;SDS011;2207;53.540;10.042;2023-06-10T04:11:25;3.93;;;1.80;;
4385;SDS011;2207;53.540;10.042;2023-06-10T04:13:51;2.70;;;1.87;;
4385;SDS011;2207;53.540;10.042;2023-06-10T04:16:18;7.30;;;1.70;;
4385;SDS011;2207;53.540;10.042;2023-06-10T04:18:46;5.40;;;1.57;;
4385;SDS011;2207;53.540;10.042;2023-06-10T04:21:12;7.30;;;2.60;;
4385;SDS011;2207;53.540;10.042;2023-06-10T04:23:39;4.70;;;1.60;;
4385;SDS011;2207;53.540;10.042;2023-06-10T04:26:07;6.20;;;1.43;;
4385;SDS011;2207;53.540;10.042;2023-06-10T04:28:35;3.60;;;1.17;;
4385;SDS011;2207;53.540;10.042;2023-06-10T04:31:02;5.53;;;1.43;;
4385;SDS011;2207;53.540;10.042;2023-06-10T04:33:29;4.47;;;1.50;;
4385;SDS011;2207;53.540;10.042;2023-06-10T04:35:56;3.40;;;1.80;;
4385;SDS011;2207;53.540;10.042;2023-06-10T04:38:22;1.13;;;1.03;;
4385;SDS011;2207;53.540;10.042;2023-06-10T04:40:49;5.50;;;2.10;;
4385;SDS011;2207;53.540;10.042;2023-06-10T04:43:16;6.40;;;1.57;;
4385;SDS011;2207;53.540;10.042;2023-06-10T04:45:44;9.67;;;2.53;;
4385;SDS011;2207;53.540;10.042;2023-06-10T04:48:11;1.53;;;1.40;;
4385;SDS011;2207;53.540;10.042;2023-06-10T04:50:38;1.40;;;1.30;;
4385;SDS011;2207;53.540;10.042;2023-06-10T04:53:04;4.53;;;1.23;;
4385;SDS011;2207;53.540;10.042;2023-06-10T04:55:32;3.43;;;1.30;;
4385;SDS011;2207;53.540;10.042;2023-06-10T04:57:59;2.80;;;1.60;;
4385;SDS011;2207;53.540;10.042;2023-06-10T05:00:25;7.63;;;1.73;;
4385;SDS011;2207;53.540;10.042;2023-06-10T05:02:53;5.50;;;2.23;;
4385;SDS011;2207;53.540;10.042;2023-06-10T05:05:21;3.20;;;1.40;;
4385;SDS011;2207;53.540;10.042;2023-06-10T05:07:47;5.00;;;2.13;;
4385;SDS011;2207;53.540;10.042;2023-06-10T05:10:14;3.93;;;2.00;;
4385;SDS011;2207;53.540;10.042;2023-06-10T05:12:41;6.63;;;2.13;;
4385;SDS011;2207;53.540;10.042;2023-06-10T05:15:08;6.53;;;1.40;;
4385;SDS011;2207;53.540;10.042;2023-06-10T05:17:35;9.07;;;1.87;;
4385;SDS011;2207;53.540;10.042;2023-06-10T05:20:04;5.00;;;1.27;;
4385;SDS011;2207;53.540;10.042;2023-06-10T05:22:31;5.23;;;1.57;;
4385;SDS011;2207;53.540;10.042;2023-06-10T05:24:58;3.80;;;1.60;;
4385;SDS011;2207;53.540;10.042;2023-06-10T05:27:24;2.20;;;1.60;;
4385;SDS011;2207;53.540;10.042;2023-06-10T05:29:51;9.70;;;1.90;;
4385;SDS011;2207;53.540;10.042;2023-06-10T05:32:18;2.77;;;1.27;;
4385;SDS011;2207;53.540;10.042;2023-06-10T05:34:44;5.53;;;1.60;;
4385;SDS011;2207;53.540;10.042;2023-06-10T05:37:13;5.83;;;2.10;;
4385;SDS011;2207;53.540;10.042;2023-06-10T05:39:39;5.20;;;2.07;;
4385;SDS011;2207;53.540;10.042;2023-06-10T05:42:06;6.67;;;2.13;;
4385;SDS011;2207;53.540;10.042;2023-06-10T05:44:34;3.03;;;1.57;;
4385;SDS011;2207;53.540;10.042;2023-06-10T05:47:00;3.20;;;1.23;;
4385;SDS011;2207;53.540;10.042;2023-06-10T05:49:27;3.70;;;1.83;;
4385;SDS011;2207;53.540;10.042;2023-06-10T05:51:54;11.73;;;2.20;;
4385;SDS011;2207;53.540;10.042;2023-06-10T05:54:24;6.80;;;1.93;;
4385;SDS011;2207;53.540;10.042;2023-06-10T05:56:51;8.33;;;1.60;;
4385;SDS011;2207;53.540;10.042;2023-06-10T05:59:18;4.47;;;1.70;;
4385;SDS011;2207;53.540;10.042;2023-06-10T06:01:44;3.50;;;1.50;;
4385;SDS011;2207;53.540;10.042;2023-06-10T06:04:11;4.20;;;1.70;;
4385;SDS011;2207;53.540;10.042;2023-06-10T06:06:38;3.97;;;1.70;;
4385;SDS011;2207;53.540;10.042;2023-06-10T06:09:06;3.80;;;1.60;;
4385;SDS011;2207;53.540;10.042;2023-06-10T06:11:34;2.30;;;1.20;;
4385;SDS011;2207;53.540;10.042;2023-06-10T06:14:01;4.20;;;1.70;;
4385;SDS011;2207;53.540;10.042;2023-06-10T06:16:27;5.40;;;2.40;;
4385;SDS011;2207;53.540;10.042;2023-06-10T06:18:54;6.40;;;1.53;;
4385;SDS011;2207;53.540;10.042;2023-06-10T06:21:21;6.80;;;2.00;;
4385;SDS011;2207;53.540;10.042;2023-06-10T06:23:48;6.03;;;2.20;;
4385;SDS011;2207;53.540;10.042;2023-06-10T06:26:14;5.00;;;1.80;;
4385;SDS011;2207;53.540;10.042;2023-06-10T06:28:42;3.43;;;1.47;;
4385;SDS011;2207;53.540;10.042;2023-06-10T06:31:09;6.20;;;2.00;;
4385;SDS011;2207;53.540;10.042;2023-06-10T06:33:36;6.40;;;1.57;;
4385;SDS011;2207;53.540;10.042;2023-06-10T06:36:03;3.03;;;1.73;;
4385;SDS011;2207;53.540;10.042;2023-06-10T06:38:29;3.23;;;1.50;;
4385;SDS011;2207;53.540;10.042;2023-06-10T06:40:56;7.87;;;2.00;;
4385;SDS011;2207;53.540;10.042;2023-06-10T06:43:27;5.83;;;1.90;;
4385;SDS011;2207;53.540;10.042;2023-06-10T06:45:56;4.37;;;2.50;;
4385;SDS011;2207;53.540;10.042;2023-06-10T06:48:22;9.67;;;2.70;;
4385;SDS011;2207;53.540;10.042;2023-06-10T06:50:49;3.93;;;1.80;;
4385;SDS011;2207;53.540;10.042;2023-06-10T06:53:16;5.97;;;2.40;;
4385;SDS011;2207;53.540;10.042;2023-06-10T06:55:42;11.33;;;2.27;;
4385;SDS011;2207;53.540;10.042;2023-06-10T06:58:09;5.27;;;1.90;;
4385;SDS011;2207;53.540;10.042;2023-06-10T07:00:36;3.20;;;2.03;;
4385;SDS011;2207;53.540;10.042;2023-06-10T07:03:04;10.03;;;2.70;;
4385;SDS011;2207;53.540;10.042;2023-06-10T07:05:30;4.27;;;1.80;;
4385;SDS011;2207;53.540;10.042;2023-06-10T07:07:57;6.80;;;1.53;;
4385;SDS011;2207;53.540;10.042;2023-06-10T07:10:24;2.53;;;1.80;;
4385;SDS011;2207;53.540;10.042;2023-06-10T07:12:51;7.93;;;2.33;;
4385;SDS011;2207;53.540;10.042;2023-06-10T07:15:18;8.33;;;2.27;;
4385;SDS011;2207;53.540;10.042;2023-06-10T07:17:45;4.33;;;1.93;;
4385;SDS011;2207;53.540;10.042;2023-06-10T07:20:14;8.67;;;2.00;;
4385;SDS011;2207;53.540;10.042;2023-06-10T07:22:40;6.30;;;2.00;;
4385;SDS011;2207;53.540;10.042;2023-06-10T07:25:07;4.00;;;2.03;;
4385;SDS011;2207;53.540;10.042;2023-06-10T07:27:34;4.57;;;2.53;;
4385;SDS011;2207;53.540;10.042;2023-06-10T07:30:02;4.60;;;2.43;;
4385;SDS011;2207;53.540;10.042;2023-06-10T07:32:29;5.13;;;2.43;;
4385;SDS011;2207;53.540;10.042;2023-06-10T07:34:56;9.50;;;2.10;;
4385;SDS011;2207;53.540;10.042;2023-06-10T07:37:24;4.13;;;1.70;;
4385;SDS011;2207;53.540;10.042;2023-06-10T07:39:51;8.93;;;2.50;;
4385;SDS011;2207;53.540;10.042;2023-06-10T07:42:17;4.73;;;2.17;;
4385;SDS011;2207;53.540;10.042;2023-06-10T07:44:44;2.23;;;1.77;;
4385;SDS011;2207;53.540;10.042;2023-06-10T07:47:11;5.20;;;2.33;;
4385;SDS011;2207;53.540;10.042;2023-06-10T07:49:37;3.53;;;1.80;;
4385;SDS011;2207;53.540;10.042;2023-06-10T07:52:05;4.57;;;2.30;;
4385;SDS011;2207;53.540;10.042;2023-06-10T07:54:33;7.30;;;2.40;;
4385;SDS011;2207;53.540;10.042;2023-06-10T07:57:00;3.17;;;1.80;;
4385;SDS011;2207;53.540;10.042;2023-06-10T07:59:27;6.67;;;2.53;;
4385;SDS011;2207;53.540;10.042;2023-06-10T08:01:54;3.03;;;1.80;;
4385;SDS011;2207;53.540;10.042;2023-06-10T08:04:20;7.03;;;2.30;;
4385;SDS011;2207;53.540;10.042;2023-06-10T08:06:47;6.53;;;2.80;;
4385;SDS011;2207;53.540;10.042;2023-06-10T08:09:14;5.80;;;2.73;;
4385;SDS011;2207;53.540;10.042;2023-06-10T08:11:42;7.87;;;2.83;;
4385;SDS011;2207;53.540;10.042;2023-06-10T08:14:09;3.93;;;2.43;;
4385;SDS011;2207;53.540;10.042;2023-06-10T08:16:35;5.90;;;2.60;;
4385;SDS011;2207;53.540;10.042;2023-06-10T08:19:02;4.77;;;2.50;;
4385;SDS011;2207;53.540;10.042;2023-06-10T08:21:29;4.90;;;1.93;;
4385;SDS011;2207;53.540;10.042;2023-06-10T08:23:56;4.43;;;2.30;;
4385;SDS011;2207;53.540;10.042;2023-06-10T08:26:23;5.30;;;2.27;;
4385;SDS011;2207;53.540;10.042;2023-06-10T08:28:52;5.60;;;2.70;;
4385;SDS011;2207;53.540;10.042;2023-06-10T08:31:19;7.33;;;2.50;;
4385;SDS011;2207;53.540;10.042;2023-06-10T08:33:46;6.10;;;3.30;;
4385;SDS011;2207;53.540;10.042;2023-06-10T08:36:12;4.37;;;2.70;;
4385;SDS011;2207;53.540;10.042;2023-06-10T08:38:39;10.77;;;2.93;;
4385;SDS011;2207;53.540;10.042;2023-06-10T08:41:06;2.80;;;2.00;;
4385;SDS011;2207;53.540;10.042;2023-06-10T08:43:36;5.10;;;2.27;;
4385;SDS011;2207;53.540;10.042;2023-06-10T08:46:08;4.13;;;2.23;;
4385;SDS011;2207;53.540;10.042;2023-06-10T08:48:35;3.03;;;1.73;;
4385;SDS011;2207;53.540;10.042;2023-06-10T08:51:06;5.50;;;1.97;;
4385;SDS011;2207;53.540;10.042;2023-06-10T08:53:36;7.17;;;2.10;;
4385;SDS011;2207;53.540;10.042;2023-06-10T08:56:04;4.10;;;2.20;;
4385;SDS011;2207;53.540;10.042;2023-06-10T08:58:32;8.60;;;2.40;;
4385;SDS011;2207;53.540;10.042;2023-06-10T09:01:05;4.47;;;2.10;;
4385;SDS011;2207;53.540;10.042;2023-06-10T09:03:33;4.90;;;2.27;;
4385;SDS011;2207;53.540;10.042;2023-06-10T09:06:00;4.50;;;3.10;;
4385;SDS011;2207;53.540;10.042;2023-06-10T09:08:30;7.97;;;2.80;;
4385;SDS011;2207;53.540;10.042;2023-06-10T09:10:57;4.27;;;2.30;;
4385;SDS011;2207;53.540;10.042;2023-06-10T09:13:24;11.27;;;3.53;;
4385;SDS011;2207;53.540;10.042;2023-06-10T09:15:50;12.10;;;2.83;;
4385;SDS011;2207;53.540;10.042;2023-06-10T09:18:17;5.80;;;3.43;;
4385;SDS011;2207;53.540;10.042;2023-06-10T09:20:45;10.27;;;3.37;;
4385;SDS011;2207;53.540;10.042;2023-06-10T09:23:12;3.33;;;2.77;;
4385;SDS011;2207;53.540;10.042;2023-06-10T09:25:41;6.40;;;2.47;;
4385;SDS011;2207;53.540;10.042;2023-06-10T09:28:12;11.77;;;2.87;;
4385;SDS011;2207;53.540;10.042;2023-06-10T09:30:39;6.63;;;2.97;;
4385;SDS011;2207;53.540;10.042;2023-06-10T09:33:09;6.20;;;3.10;;
4385;SDS011;2207;53.540;10.042;2023-06-10T09:35:37;3.00;;;2.50;;
4385;SDS011;2207;53.540;10.042;2023-06-10T09:38:14;7.60;;;3.00;;
4385;SDS011;2207;53.540;10.042;2023-06-10T09:40:48;6.93;;;3.07;;
4385;SDS011;2207;53.540;10.042;2023-06-10T09:43:16;5.83;;;2.70;;
4385;SDS011;2207;53.540;10.042;2023-06-10T09:45:43;4.20;;;2.43;;
4385;SDS011;2207;53.540;10.042;2023-06-10T09:48:10;8.13;;;2.80;;
4385;SDS011;2207;53.540;10.042;2023-06-10T09:50:41;6.60;;;2.77;;
4385;SDS011;2207;53.540;10.042;2023-06-10T09:53:10;4.13;;;2.30;;
4385;SDS011;2207;53.540;10.042;2023-06-10T09:55:37;6.70;;;2.80;;
4385;SDS011;2207;53.540;10.042;2023-06-10T09:58:05;12.80;;;2.63;;
4385;SDS011;2207;53.540;10.042;2023-06-10T10:00:34;15.93;;;3.23;;
4385;SDS011;2207;53.540;10.042;2023-06-10T10:03:02;5.67;;;3.10;;
4385;SDS011;2207;53.540;10.042;2023-06-10T10:05:29;8.00;;;3.00;;
4385;SDS011;2207;53.540;10.042;2023-06-10T10:07:56;10.00;;;2.30;;
4385;SDS011;2207;53.540;10.042;2023-06-10T10:10:27;5.90;;;3.27;;
4385;SDS011;2207;53.540;10.042;2023-06-10T10:12:54;11.67;;;3.23;;
4385;SDS011;2207;53.540;10.042;2023-06-10T10:15:22;4.90;;;3.20;;
4385;SDS011;2207;53.540;10.042;2023-06-10T10:17:52;6.30;;;3.13;;
4385;SDS011;2207;53.540;10.042;2023-06-10T10:20:29;7.10;;;2.43;;
4385;SDS011;2207;53.540;10.042;2023-06-10T10:22:59;8.27;;;3.50;;
4385;SDS011;2207;53.540;10.042;2023-06-10T10:25:32;16.40;;;3.17;;
4385;SDS011;2207;53.540;10.042;2023-06-10T10:28:04;3.33;;;2.53;;
4385;SDS011;2207;53.540;10.042;2023-06-10T10:30:37;8.17;;;3.17;;
4385;SDS011;2207;53.540;10.042;2023-06-10T10:33:06;5.50;;;3.03;;
4385;SDS011;2207;53.540;10.042;2023-06-10T10:35:38;7.00;;;3.17;;
4385;SDS011;2207;53.540;10.042;2023-06-10T10:38:06;6.20;;;2.80;;
4385;SDS011;2207;53.540;10.042;2023-06-10T10:40:36;4.00;;;2.57;;
4385;SDS011;2207;53.540;10.042;2023-06-10T10:43:04;4.90;;;2.93;;
4385;SDS011;2207;53.540;10.042;2023-06-10T10:45:32;4.70;;;3.00;;
4385;SDS011;2207;53.540;10.042;2023-06-10T10:48:02;9.93;;;3.30;;
4385;SDS011;2207;53.540;10.042;2023-06-10T10:50:32;7.90;;;3.03;;
4385;SDS011;2207;53.540;10.042;2023-06-10T10:52:59;6.60;;;3.10;;
4385;SDS011;2207;53.540;10.042;2023-06-10T10:55:27;5.73;;;3.30;;
4385;SDS011;2207;53.540;10.042;2023-06-10T10:57:56;4.77;;;2.70;;
4385;SDS011;2207;53.540;10.042;2023-06-10T11:00:28;7.87;;;2.90;;
4385;SDS011;2207;53.540;10.042;2023-06-10T11:02:59;4.33;;;2.60;;
4385;SDS011;2207;53.540;10.042;2023-06-10T11:05:36;6.73;;;3.00;;
4385;SDS011;2207;53.540;10.042;2023-06-10T11:08:04;6.43;;;2.80;;
4385;SDS011;2207;53.540;10.042;2023-06-10T11:10:33;5.73;;;2.97;;
4385;SDS011;2207;53.540;10.042;2023-06-10T11:13:02;8.23;;;3.37;;
4385;SDS011;2207;53.540;10.042;2023-06-10T11:15:33;8.97;;;2.90;;
4385;SDS011;2207;53.540;10.042;2023-06-10T11:18:07;9.13;;;3.33;;
4385;SDS011;2207;53.540;10.042;2023-06-10T11:23:33;10.20;;;3.17;;
4385;SDS011;2207;53.540;10.042;2023-06-10T11:26:16;6.50;;;2.90;;
4385;SDS011;2207;53.540;10.042;2023-06-10T11:31:38;5.20;;;2.80;;
4385;SDS011;2207;53.540;10.042;2023-06-10T11:34:09;4.67;;;2.40;;
4385;SDS011;2207;53.540;10.042;2023-06-10T11:36:37;7.90;;;4.20;;
4385;SDS011;2207;53.540;10.042;2023-06-10T11:39:07;5.13;;;3.30;;
4385;SDS011;2207;53.540;10.042;2023-06-10T11:41:35;5.80;;;3.00;;
4385;SDS011;2207;53.540;10.042;2023-06-10T11:44:04;10.10;;;3.13;;
4385;SDS011;2207;53.540;10.042;2023-06-10T11:46:35;2.67;;;2.47;;
4385;SDS011;2207;53.540;10.042;2023-06-10T11:49:03;5.63;;;3.90;;
4385;SDS011;2207;53.540;10.042;2023-06-10T11:51:32;5.43;;;3.20;;
4385;SDS011;2207;53.540;10.042;2023-06-10T11:54:00;6.40;;;3.30;;
4385;SDS011;2207;53.540;10.042;2023-06-10T11:56:27;6.00;;;3.77;;
4385;SDS011;2207;53.540;10.042;2023-06-10T11:58:56;6.90;;;3.50;;
4385;SDS011;2207;53.540;10.042;2023-06-10T12:01:25;10.10;;;3.40;;
4385;SDS011;2207;53.540;10.042;2023-06-10T12:04:03;6.67;;;4.13;;
4385;SDS011;2207;53.540;10.042;2023-06-10T12:06:37;4.87;;;3.50;;
4385;SDS011;2207;53.540;10.042;2023-06-10T12:09:05;13.40;;;3.23;;
4385;SDS011;2207;53.540;10.042;2023-06-10T12:11:32;4.60;;;3.60;;
4385;SDS011;2207;53.540;10.042;2023-06-10T12:13:59;6.30;;;4.00;;
4385;SDS011;2207;53.540;10.042;2023-06-10T12:16:27;8.17;;;3.67;;
4385;SDS011;2207;53.540;10.042;2023-06-10T12:19:00;6.97;;;4.10;;
4385;SDS011;2207;53.540;10.042;2023-06-10T12:21:29;6.03;;;3.77;;
4385;SDS011;2207;53.540;10.042;2023-06-10T12:24:03;4.33;;;2.80;;
4385;SDS011;2207;53.540;10.042;2023-06-10T12:26:38;6.07;;;4.27;;
4385;SDS011;2207;53.540;10.042;2023-06-10T12:29:16;3.80;;;3.17;;
4385;SDS011;2207;53.540;10.042;2023-06-10T12:31:54;5.97;;;3.33;;
4385;SDS011;2207;53.540;10.042;2023-06-10T12:34:32;6.30;;;3.47;;
4385;SDS011;2207;53.540;10.042;2023-06-10T12:37:01;9.03;;;3.23;;
4385;SDS011;2207;53.540;10.042;2023-06-10T12:39:30;3.20;;;2.63;;
4385;SDS011;2207;53.540;10.042;2023-06-10T12:42:00;7.97;;;3.20;;
4385;SDS011;2207;53.540;10.042;2023-06-10T12:44:31;6.27;;;4.03;;
4385;SDS011;2207;53.540;10.042;2023-06-10T12:46:59;5.10;;;4.00;;
4385;SDS011;2207;53.540;10.042;2023-06-10T12:49:26;4.47;;;3.77;;
4385;SDS011;2207;53.540;10.042;2023-06-10T12:51:53;12.60;;;4.20;;
4385;SDS011;2207;53.540;10.042;2023-06-10T12:54:22;7.57;;;3.70;;
4385;SDS011;2207;53.540;10.042;2023-06-10T12:56:49;5.87;;;3.20;;
4385;SDS011;2207;53.540;10.042;2023-06-10T12:59:16;6.90;;;4.03;;
4385;SDS011;2207;53.540;10.042;2023-06-10T13:01:42;7.50;;;3.60;;
4385;SDS011;2207;53.540;10.042;2023-06-10T13:04:09;5.47;;;4.13;;
4385;SDS011;2207;53.540;10.042;2023-06-10T13:06:36;8.07;;;3.10;;
4385;SDS011;2207;53.540;10.042;2023-06-10T13:09:05;3.53;;;3.00;;
4385;SDS011;2207;53.540;10.042;2023-06-10T13:11:34;8.47;;;4.10;;
4385;SDS011;2207;53.540;10.042;2023-06-10T13:14:01;4.23;;;3.67;;
4385;SDS011;2207;53.540;10.042;2023-06-10T13:16:29;5.37;;;4.37;;
4385;SDS011;2207;53.540;10.042;2023-06-10T13:18:56;9.90;;;4.10;;
4385;SDS011;2207;53.540;10.042;2023-06-10T13:21:23;5.27;;;4.03;;
4385;SDS011;2207;53.540;10.042;2023-06-10T13:23:50;7.30;;;4.20;;
4385;SDS011;2207;53.540;10.042;2023-06-10T13:26:17;8.20;;;4.30;;
4385;SDS011;2207;53.540;10.042;2023-06-10T13:28:45;6.30;;;3.23;;
4385;SDS011;2207;53.540;10.042;2023-06-10T13:31:12;5.50;;;3.90;;
4385;SDS011;2207;53.540;10.042;2023-06-10T13:33:38;7.13;;;4.00;;
4385;SDS011;2207;53.540;10.042;2023-06-10T13:36:05;5.43;;;2.97;;
4385;SDS011;2207;53.540;10.042;2023-06-10T13:38:32;7.30;;;4.33;;
4385;SDS011;2207;53.540;10.042;2023-06-10T13:40:58;6.80;;;3.10;;
4385;SDS011;2207;53.540;10.042;2023-06-10T13:43:26;13.43;;;3.20;;
4385;SDS011;2207;53.540;10.042;2023-06-10T13:45:55;4.70;;;3.27;;
4385;SDS011;2207;53.540;10.042;2023-06-10T13:48:21;7.20;;;3.40;;
4385;SDS011;2207;53.540;10.042;2023-06-10T13:50:48;8.50;;;3.70;;
4385;SDS011;2207;53.540;10.042;2023-06-10T13:53:15;6.87;;;3.53;;
4385;SDS011;2207;53.540;10.042;2023-06-10T13:55:41;8.73;;;3.00;;
4385;SDS011;2207;53.540;10.042;2023-06-10T13:58:08;8.47;;;3.00;;
4385;SDS011;2207;53.540;10.042;2023-06-10T14:00:35;3.60;;;2.50;;
4385;SDS011;2207;53.540;10.042;2023-06-10T14:03:03;9.07;;;3.43;;
4385;SDS011;2207;53.540;10.042;2023-06-10T14:05:29;5.00;;;2.80;;
4385;SDS011;2207;53.540;10.042;2023-06-10T14:07:56;7.67;;;3.97;;
4385;SDS011;2207;53.540;10.042;2023-06-10T14:10:23;5.77;;;2.87;;
4385;SDS011;2207;53.540;10.042;2023-06-10T14:12:50;6.73;;;2.80;;
4385;SDS011;2207;53.540;10.042;2023-06-10T14:15:17;12.13;;;2.90;;
4385;SDS011;2207;53.540;10.042;2023-06-10T14:17:43;8.80;;;2.43;;
4385;SDS011;2207;53.540;10.042;2023-06-10T14:20:12;11.93;;;3.50;;
4385;SDS011;2207;53.540;10.042;2023-06-10T14:22:39;7.40;;;3.23;;
4385;SDS011;2207;53.540;10.042;2023-06-10T14:25:06;14.30;;;2.10;;
4385;SDS011;2207;53.540;10.042;2023-06-10T14:27:33;9.90;;;2.37;;
4385;SDS011;2207;53.540;10.042;2023-06-10T14:29:59;5.07;;;2.23;;
4385;SDS011;2207;53.540;10.042;2023-06-10T14:32:27;5.60;;;2.70;;
4385;SDS011;2207;53.540;10.042;2023-06-10T14:34:54;9.10;;;2.63;;
4385;SDS011;2207;53.540;10.042;2023-06-10T14:37:22;3.70;;;2.70;;
4385;SDS011;2207;53.540;10.042;2023-06-10T14:39:52;7.77;;;1.83;;
4385;SDS011;2207;53.540;10.042;2023-06-10T14:42:18;8.83;;;2.43;;
4385;SDS011;2207;53.540;10.042;2023-06-10T14:44:45;5.37;;;3.10;;
4385;SDS011;2207;53.540;10.042;2023-06-10T14:47:12;6.50;;;3.47;;
4385;SDS011;2207;53.540;10.042;2023-06-10T14:49:38;8.00;;;3.77;;
4385;SDS011;2207;53.540;10.042;2023-06-10T14:52:07;8.37;;;3.10;;
4385;SDS011;2207;53.540;10.042;2023-06-10T14:54:35;7.83;;;2.23;;
4385;SDS011;2207;53.540;10.042;2023-06-10T14:57:02;3.77;;;2.77;;
4385;SDS011;2207;53.540;10.042;2023-06-10T14:59:30;4.40;;;2.30;;
4385;SDS011;2207;53.540;10.042;2023-06-10T15:01:57;7.60;;;2.97;;
4385;SDS011;2207;53.540;10.042;2023-06-10T15:04:25;6.33;;;3.17;;
4385;SDS011;2207;53.540;10.042;2023-06-10T15:06:52;4.80;;;2.63;;
4385;SDS011;2207;53.540;10.042;2023-06-10T15:09:19;7.20;;;3.27;;